createdAt,value
2018-03-20T00:00:29.150Z,100678.18
2018-03-20T00:02:54.958Z,100675.79
2018-03-20T00:05:20.874Z,100674.59
2018-03-20T00:07:46.729Z,100670.41
2018-03-20T00:10:12.534Z,100673.63
2018-03-20T00:12:38.345Z,100672.56
2018-03-20T00:15:04.155Z,100662.86
2018-03-20T00:17:29.967Z,100669.77
2018-03-20T00:19:55.777Z,100660.73
2018-03-20T00:22:21.587Z,100663.02
2018-03-20T00:24:47.478Z,100659.97
2018-03-20T00:27:13.288Z,100658.33
2018-03-20T00:29:39.094Z,100662.02
2018-03-20T00:32:04.907Z,100661.79
2018-03-20T00:34:30.746Z,100663.33
2018-03-20T00:36:56.567Z,100663.80
2018-03-20T00:39:22.377Z,100662.01
2018-03-20T00:41:48.188Z,100657.28
2018-03-20T00:44:14.967Z,100660.05
2018-03-20T00:46:40.890Z,100657.61
2018-03-20T00:49:06.692Z,100658.20
2018-03-20T00:51:32.538Z,100654.78
2018-03-20T00:53:58.395Z,100644.27
2018-03-20T00:56:24.218Z,100641.98
2018-03-20T00:58:50.021Z,100645.85
2018-03-20T01:01:15.904Z,100636.60
2018-03-20T01:03:41.718Z,100634.28
2018-03-20T01:06:07.522Z,100643.52
2018-03-20T01:08:33.329Z,100642.97
2018-03-20T01:10:59.144Z,100641.48
2018-03-20T01:13:24.947Z,100636.47
2018-03-20T01:15:50.798Z,100637.13
2018-03-20T01:18:16.608Z,100631.41
2018-03-20T01:20:42.453Z,100629.63
2018-03-20T01:23:08.263Z,100631.48
2018-03-20T01:25:34.075Z,100634.70
2018-03-20T01:27:59.882Z,100638.56
2018-03-20T01:30:25.689Z,100631.98
2018-03-20T01:32:51.498Z,100626.87
2018-03-20T01:35:17.418Z,100623.87
2018-03-20T01:37:43.264Z,100625.92
2018-03-20T01:40:09.112Z,100620.55
2018-03-20T01:42:34.922Z,100611.61
2018-03-20T01:45:00.730Z,100621.39
2018-03-20T01:47:26.538Z,100611.83
2018-03-20T01:49:52.348Z,100609.39
2018-03-20T01:52:24.286Z,100609.92
2018-03-20T01:54:50.130Z,100608.68
2018-03-20T01:57:15.934Z,100604.84
2018-03-20T01:59:41.742Z,100598.07
2018-03-20T02:02:07.555Z,100591.12
2018-03-20T02:04:33.374Z,100591.62
2018-03-20T02:06:59.174Z,100585.95
2018-03-20T02:09:25.813Z,100587.97
2018-03-20T02:11:51.615Z,100588.92
2018-03-20T02:14:17.438Z,100587.97
2018-03-20T02:16:43.307Z,100592.70
2018-03-20T02:19:09.142Z,100583.91
2018-03-20T02:21:34.946Z,100578.78
2018-03-20T02:24:00.780Z,100583.09
2018-03-20T02:26:26.582Z,100571.87
2018-03-20T02:28:52.478Z,100572.75
2018-03-20T02:31:18.298Z,100574.31
2018-03-20T02:33:44.107Z,100577.25
2018-03-20T02:36:09.915Z,100579.94
2018-03-20T02:38:35.718Z,100575.80
2018-03-20T02:41:01.527Z,100572.44
2018-03-20T02:43:27.343Z,100563.76
2018-03-20T02:45:53.150Z,100571.74
2018-03-20T02:48:18.945Z,100566.69
2018-03-20T02:50:44.795Z,100561.11
2018-03-20T02:53:10.600Z,100562.75
2018-03-20T02:55:36.406Z,100558.14
2018-03-20T02:58:02.263Z,100557.95
2018-03-20T03:00:28.067Z,100563.98
2018-03-20T03:02:53.907Z,100565.61
2018-03-20T03:05:20.642Z,100558.63
2018-03-20T03:07:46.489Z,100556.47
2018-03-20T03:10:12.286Z,100546.39
2018-03-20T03:12:38.906Z,100548.31
2018-03-20T03:15:04.707Z,100549.27
2018-03-20T03:17:30.542Z,100551.52
2018-03-20T03:19:57.291Z,100555.45
2018-03-20T03:22:23.098Z,100555.44
2018-03-20T03:24:48.893Z,100554.31
2018-03-20T03:27:15.375Z,100555.02
2018-03-20T03:29:41.226Z,100550.80
2018-03-20T03:32:07.878Z,100546.09
2018-03-20T03:34:33.674Z,100540.72
2018-03-20T03:36:59.474Z,100532.83
2018-03-20T03:39:25.278Z,100537.64
2018-03-20T03:41:51.086Z,100548.78
2018-03-20T03:44:16.894Z,100540.81
2018-03-20T03:46:42.699Z,100543.19
2018-03-20T03:49:08.508Z,100533.58
2018-03-20T03:51:34.373Z,100534.88
2018-03-20T03:54:00.178Z,100527.55
2018-03-20T03:56:26.018Z,100527.00
2018-03-20T03:58:52.103Z,100524.07
2018-03-20T04:01:18.421Z,100524.60
2018-03-20T04:03:44.227Z,100523.17
2018-03-20T04:06:10.063Z,100534.84
2018-03-20T04:08:35.863Z,100539.70
2018-03-20T04:11:01.728Z,100545.07
2018-03-20T04:13:28.374Z,100539.20
2018-03-20T04:15:54.171Z,100544.84
2018-03-20T04:18:19.977Z,100547.36
2018-03-20T04:20:45.798Z,100551.88
2018-03-20T04:23:11.646Z,100552.08
2018-03-20T04:25:37.508Z,100561.91
2018-03-20T04:28:03.334Z,100560.30
2018-03-20T04:30:29.138Z,100567.17
2018-03-20T04:32:55.782Z,100571.89
2018-03-20T04:35:22.503Z,100567.70
2018-03-20T04:37:48.343Z,100570.43
2018-03-20T04:40:14.934Z,100569.17
2018-03-20T04:42:41.733Z,100568.33
2018-03-20T04:45:07.530Z,100569.48
2018-03-20T04:47:34.221Z,100581.78
2018-03-20T04:50:00.023Z,100578.91
2018-03-20T04:52:25.845Z,100580.27
2018-03-20T04:54:52.508Z,100571.61
2018-03-20T04:57:18.307Z,100572.44
2018-03-20T04:59:44.111Z,100577.65
2018-03-20T05:02:09.974Z,100586.90
2018-03-20T05:04:35.806Z,100570.59
2018-03-20T05:07:02.571Z,100573.17
2018-03-20T05:09:29.333Z,100577.36
2018-03-20T05:11:56.060Z,100575.58
2018-03-20T05:14:22.870Z,100572.42
2018-03-20T05:16:48.690Z,100570.31
2018-03-20T05:22:19.332Z,100567.23
2018-03-20T05:24:46.115Z,100565.13
2018-03-20T05:27:11.939Z,100566.52
2018-03-20T05:29:38.813Z,100563.94
2018-03-20T05:32:04.650Z,100559.81
2018-03-20T05:34:31.375Z,100563.70
2018-03-20T05:36:57.219Z,100562.63
2018-03-20T05:39:23.134Z,100563.90
2018-03-20T05:41:49.743Z,100559.37
2018-03-20T05:44:16.525Z,100562.97
2018-03-20T05:49:58.179Z,100566.63
2018-03-20T05:52:24.147Z,100566.16
2018-03-20T05:54:49.970Z,100553.67
2018-03-20T05:57:16.678Z,100551.82
2018-03-20T05:59:42.478Z,100550.77
2018-03-20T06:02:08.292Z,100551.58
2018-03-20T06:04:34.097Z,100563.80
2018-03-20T06:07:00.759Z,100560.59
2018-03-20T06:09:26.768Z,100558.06
2018-03-20T06:11:52.627Z,100557.42
2018-03-20T06:14:18.442Z,100549.59
2018-03-20T06:16:45.134Z,100560.34
2018-03-20T06:19:11.003Z,100557.24
2018-03-20T06:21:36.849Z,100561.92
2018-03-20T06:24:02.755Z,100563.34
2018-03-20T06:26:28.573Z,100567.17
2018-03-20T06:28:55.434Z,100560.49
2018-03-20T06:31:22.174Z,100566.39
2018-03-20T06:33:48.033Z,100567.17
2018-03-20T06:36:13.855Z,100569.55
2018-03-20T06:38:39.689Z,100574.12
2018-03-20T06:41:05.599Z,100570.38
2018-03-20T06:43:31.426Z,100574.12
2018-03-20T06:45:58.251Z,100573.01
2018-03-20T06:48:25.011Z,100582.65
2018-03-20T06:50:58.918Z,100590.19
2018-03-20T06:53:25.626Z,100587.50
2018-03-20T06:55:51.502Z,100593.83
2018-03-20T06:58:17.307Z,100596.28
2018-03-20T07:00:43.128Z,100585.74
2018-03-20T07:03:10.078Z,100584.94
2018-03-20T07:05:36.951Z,100582.73
2018-03-20T07:08:03.606Z,100578.09
2018-03-20T07:10:30.204Z,100580.91
2018-03-20T07:12:56.870Z,100582.06
2018-03-20T07:15:22.679Z,100573.88
2018-03-20T07:17:48.503Z,100572.63
2018-03-20T07:20:14.402Z,100572.34
2018-03-20T07:22:40.216Z,100578.18
2018-03-20T07:25:06.078Z,100577.33
2018-03-20T07:27:32.757Z,100579.49
2018-03-20T07:29:59.411Z,100575.72
2018-03-20T07:32:25.247Z,100579.05
2018-03-20T07:34:51.082Z,100590.30
2018-03-20T07:40:02.900Z,100596.20
2018-03-20T07:42:29.554Z,100602.65
2018-03-20T07:44:56.328Z,100609.80
2018-03-20T07:47:23.091Z,100614.78
2018-03-20T07:49:49.736Z,100623.58
2018-03-20T07:52:15.607Z,100624.84
2018-03-20T07:54:42.275Z,100628.11
2018-03-20T07:57:09.010Z,100632.41
2018-03-20T07:59:35.702Z,100634.56
2018-03-20T08:02:01.536Z,100638.47
2018-03-20T08:04:27.364Z,100644.26
2018-03-20T08:06:53.235Z,100649.73
2018-03-20T08:09:19.057Z,100648.70
2018-03-20T08:11:44.896Z,100655.94
2018-03-20T08:14:10.724Z,100656.00
2018-03-20T08:16:37.455Z,100669.66
2018-03-20T08:19:03.290Z,100668.83
2018-03-20T08:21:29.392Z,100666.39
2018-03-20T08:23:55.251Z,100672.06
2018-03-20T08:26:21.103Z,100666.58
2018-03-20T08:28:46.943Z,100673.45
2018-03-20T08:31:12.776Z,100684.30
2018-03-20T08:33:38.595Z,100677.14
2018-03-20T08:36:04.424Z,100681.96
2018-03-20T08:38:30.302Z,100688.19
2018-03-20T08:40:56.118Z,100685.79
2018-03-20T08:43:21.942Z,100695.89
2018-03-20T08:45:48.646Z,100701.86
2018-03-20T08:48:14.462Z,100705.68
2018-03-20T08:50:40.284Z,100709.36
2018-03-20T08:53:06.140Z,100710.20
2018-03-20T08:55:31.970Z,100711.22
2018-03-20T08:57:58.670Z,100716.34
2018-03-20T09:00:24.530Z,100719.50
2018-03-20T09:02:50.370Z,100716.17
2018-03-20T09:05:16.227Z,100718.08
2018-03-20T09:07:42.039Z,100720.93
2018-03-20T09:10:07.873Z,100724.29
2018-03-20T09:12:34.506Z,100725.36
2018-03-20T09:15:01.326Z,100723.98
2018-03-20T09:17:27.155Z,100728.98
2018-03-20T09:19:52.974Z,100727.26
2018-03-20T09:22:18.814Z,100734.43
2018-03-20T09:24:44.642Z,100738.78
2018-03-20T09:27:11.501Z,100741.66
2018-03-20T09:29:38.287Z,100739.94
2018-03-20T09:32:04.967Z,100752.59
2018-03-20T09:34:30.783Z,100753.42
2018-03-20T09:36:56.644Z,100753.13
2018-03-20T09:39:22.484Z,100760.39
2018-03-20T09:41:49.201Z,100762.61
2018-03-20T09:44:15.054Z,100768.95
2018-03-20T09:46:40.880Z,100775.16
2018-03-20T09:49:06.801Z,100781.80
2018-03-20T09:51:32.596Z,100786.69
2018-03-20T09:53:58.426Z,100792.23
2018-03-20T09:56:24.243Z,100795.10
2018-03-20T09:58:50.061Z,100799.53
2018-03-20T10:01:15.926Z,100797.27
2018-03-20T10:03:41.792Z,100805.98
2018-03-20T10:06:07.667Z,100798.70
2018-03-20T10:08:33.471Z,100805.79
2018-03-20T10:10:59.295Z,100809.44
2018-03-20T10:13:25.153Z,100814.88
2018-03-20T10:15:50.990Z,100816.48
2018-03-20T10:18:16.846Z,100821.38
2018-03-20T10:20:42.674Z,100825.79
2018-03-20T10:23:08.495Z,100826.64
2018-03-20T10:25:35.349Z,100826.34
2018-03-20T10:28:01.160Z,100828.50
2018-03-20T10:30:26.998Z,100830.81
2018-03-20T10:32:52.813Z,100830.29
2018-03-20T10:35:18.641Z,100832.35
2018-03-20T10:37:44.467Z,100829.32
2018-03-20T10:40:10.330Z,100839.55
2018-03-20T10:42:36.187Z,100842.52
2018-03-20T10:45:02.860Z,100838.22
2018-03-20T10:47:28.677Z,100839.26
2018-03-20T10:49:55.434Z,100849.58
2018-03-20T10:52:22.206Z,100852.56
2018-03-20T10:54:48.081Z,100846.30
2018-03-20T10:57:14.735Z,100852.22
2018-03-20T10:59:41.544Z,100850.58
2018-03-20T11:02:14.406Z,100858.48
2018-03-20T11:04:40.237Z,100864.88
2018-03-20T11:07:06.917Z,100870.06
2018-03-20T11:09:40.766Z,100871.86
2018-03-20T11:12:07.574Z,100876.48
2018-03-20T11:14:33.392Z,100886.32
2018-03-20T11:16:59.260Z,100882.62
2018-03-20T11:19:25.078Z,100891.71
2018-03-20T11:21:51.927Z,100898.95
2018-03-20T11:24:17.718Z,100902.09
2018-03-20T11:26:44.399Z,100907.14
2018-03-20T11:29:10.230Z,100908.72
2018-03-20T11:31:36.066Z,100919.31
2018-03-20T11:34:02.859Z,100920.27
2018-03-20T11:36:28.681Z,100924.16
2018-03-20T11:38:55.350Z,100922.22
2018-03-20T11:41:21.174Z,100926.47
2018-03-20T11:43:47.002Z,100931.16
2018-03-20T11:46:12.851Z,100932.64
2018-03-20T11:48:39.497Z,100938.68
2018-03-20T11:51:05.350Z,100940.05
2018-03-20T11:53:31.172Z,100936.94
2018-03-20T11:55:57.844Z,100937.97
2018-03-20T11:58:23.653Z,100947.67
2018-03-20T12:00:49.485Z,100950.55
2018-03-20T12:03:15.295Z,100958.61
2018-03-20T12:05:41.962Z,100960.86
2018-03-20T12:08:13.961Z,100954.45
2018-03-20T12:10:40.724Z,100967.80
2018-03-20T12:13:06.546Z,100965.48
2018-03-20T12:15:32.367Z,100971.53
2018-03-20T12:17:58.191Z,100977.38
2018-03-20T12:20:24.837Z,100983.17
2018-03-20T12:22:50.692Z,100988.63
2018-03-20T12:25:17.382Z,100984.35
2018-03-20T12:27:43.203Z,100992.58
2018-03-20T12:30:10.036Z,100998.84
2018-03-20T12:32:36.635Z,100994.77
2018-03-20T12:35:02.471Z,100999.45
2018-03-20T12:37:28.315Z,101001.03
2018-03-20T12:39:55.151Z,101012.28
2018-03-20T12:42:20.966Z,101011.97
2018-03-20T12:44:46.784Z,101012.80
2018-03-20T12:47:12.609Z,101021.49
2018-03-20T12:49:38.425Z,101022.61
2018-03-20T12:52:05.257Z,101022.03
2018-03-20T12:54:31.119Z,101025.11
2018-03-20T12:56:57.780Z,101022.40
2018-03-20T12:59:24.556Z,101033.02
2018-03-20T13:01:51.350Z,101024.72
2018-03-20T13:04:18.086Z,101036.35
2018-03-20T13:06:44.786Z,101040.55
2018-03-20T13:09:11.631Z,101041.31
2018-03-20T13:11:38.457Z,101041.97
2018-03-20T13:14:04.283Z,101041.55
2018-03-20T13:16:30.106Z,101051.26
2018-03-20T13:18:55.916Z,101052.89
2018-03-20T13:21:21.733Z,101053.47
2018-03-20T13:23:47.558Z,101054.81
2018-03-20T13:26:13.394Z,101057.32
2018-03-20T13:28:39.257Z,101056.20
2018-03-20T13:31:05.099Z,101058.28
2018-03-20T13:33:30.920Z,101053.25
2018-03-20T13:35:57.638Z,101058.16
2018-03-20T13:38:23.489Z,101058.25
2018-03-20T13:40:49.319Z,101057.69
2018-03-20T13:43:16.096Z,101055.12
2018-03-20T13:45:41.955Z,101060.91
2018-03-20T13:48:08.784Z,101065.19
2018-03-20T13:50:34.643Z,101073.70
2018-03-20T13:53:00.479Z,101076.98
2018-03-20T13:55:26.311Z,101070.87
2018-03-20T13:57:52.130Z,101083.39
2018-03-20T14:00:17.962Z,101082.33
2018-03-20T14:02:43.780Z,101087.06
2018-03-20T14:05:09.617Z,101084.30
2018-03-20T14:07:35.478Z,101089.27
2018-03-20T14:10:01.349Z,101093.09
2018-03-20T14:12:27.175Z,101092.45
2018-03-20T14:14:53.008Z,101097.08
2018-03-20T14:17:18.836Z,101103.14
2018-03-20T14:19:44.676Z,101102.91
2018-03-20T14:22:10.494Z,101110.75
2018-03-20T14:24:36.318Z,101117.16
2018-03-20T14:27:02.143Z,101121.78
2018-03-20T14:29:28.005Z,101109.72
2018-03-20T14:31:54.855Z,101120.27
2018-03-20T14:34:20.681Z,101125.45
2018-03-20T14:36:46.538Z,101128.95
2018-03-20T14:39:13.354Z,101129.97
2018-03-20T14:41:39.976Z,101136.69
2018-03-20T14:44:05.843Z,101139.74
2018-03-20T14:46:31.662Z,101147.94
2018-03-20T14:48:57.529Z,101145.23
2018-03-20T14:51:23.367Z,101146.75
2018-03-20T14:53:49.220Z,101149.77
2018-03-20T14:56:15.960Z,101158.98
2018-03-20T14:58:41.845Z,101163.88
2018-03-20T15:01:07.678Z,101166.56
2018-03-20T15:03:34.467Z,101173.12
2018-03-20T15:06:00.285Z,101179.61
2018-03-20T15:08:26.099Z,101184.81
2018-03-20T15:10:51.970Z,101195.81
2018-03-20T15:13:18.615Z,101196.77
2018-03-20T15:15:44.446Z,101201.48
2018-03-20T15:18:11.268Z,101210.34
2018-03-20T15:20:37.090Z,101212.83
2018-03-20T15:23:02.909Z,101217.73
2018-03-20T15:25:28.731Z,101222.82
2018-03-20T15:27:55.412Z,101220.31
2018-03-20T15:30:21.285Z,101222.57
2018-03-20T15:32:48.043Z,101239.73
2018-03-20T15:35:14.873Z,101238.50
2018-03-20T15:37:40.738Z,101247.41
2018-03-20T15:40:07.540Z,101247.08
2018-03-20T15:42:34.251Z,101247.19
2018-03-20T15:45:00.072Z,101252.94
2018-03-20T15:47:25.891Z,101255.39
2018-03-20T15:49:52.542Z,101261.03
2018-03-20T15:52:19.318Z,101272.23
2018-03-20T15:54:45.185Z,101270.42
2018-03-20T15:57:11.916Z,101284.09
2018-03-20T15:59:38.736Z,101282.95
2018-03-20T16:02:04.561Z,101290.41
2018-03-20T16:04:31.424Z,101297.97
2018-03-20T16:06:58.112Z,101300.82
2018-03-20T16:09:23.935Z,101308.66
2018-03-20T16:11:49.754Z,101308.91
2018-03-20T16:14:16.471Z,101315.94
2018-03-20T16:16:42.306Z,101325.94
2018-03-20T16:19:08.126Z,101324.70
2018-03-20T16:21:34.777Z,101330.56
2018-03-20T16:24:01.401Z,101336.20
2018-03-20T16:26:27.244Z,101333.88
2018-03-20T16:28:53.078Z,101345.19
2018-03-20T16:31:18.919Z,101350.03
2018-03-20T16:33:44.734Z,101352.97
2018-03-20T16:36:10.567Z,101355.45
2018-03-20T16:38:36.386Z,101360.50
2018-03-20T16:41:02.202Z,101368.48
2018-03-20T16:43:28.926Z,101373.58
2018-03-20T16:45:54.823Z,101366.80
2018-03-20T16:48:20.635Z,101377.53
2018-03-20T16:50:47.371Z,101380.02
2018-03-20T16:53:13.179Z,101385.53
2018-03-20T16:55:38.997Z,101388.17
2018-03-20T16:58:04.812Z,101402.98
2018-03-20T17:00:30.645Z,101406.30
2018-03-20T17:02:56.459Z,101410.56
2018-03-20T17:05:22.270Z,101412.87
2018-03-20T17:07:48.100Z,101424.25
2018-03-20T17:10:13.919Z,101426.54
2018-03-20T17:12:39.746Z,101429.14
2018-03-20T17:15:05.623Z,101432.84
2018-03-20T17:17:31.426Z,101435.78
2018-03-20T17:19:57.259Z,101446.38
2018-03-20T17:22:23.081Z,101450.13
2018-03-20T17:24:49.072Z,101460.98
2018-03-20T17:27:14.946Z,101456.38
2018-03-20T17:29:40.768Z,101465.71
2018-03-20T17:32:06.605Z,101471.17
2018-03-20T17:34:32.482Z,101476.69
2018-03-20T17:36:58.285Z,101484.37
2018-03-20T17:39:24.115Z,101487.51
2018-03-20T17:41:50.887Z,101495.38
2018-03-20T17:44:16.715Z,101497.18
2018-03-20T17:46:42.542Z,101506.22
2018-03-20T17:49:08.376Z,101509.62
2018-03-20T17:51:34.203Z,101513.76
2018-03-20T17:54:00.080Z,101515.18
2018-03-20T17:56:25.943Z,101523.10
2018-03-20T17:58:52.668Z,101526.94
2018-03-20T18:01:19.186Z,101530.42
2018-03-20T18:03:45.612Z,101534.30
2018-03-20T18:06:11.433Z,101543.90
2018-03-20T18:08:37.266Z,101539.86
2018-03-20T18:11:03.123Z,101546.59
2018-03-20T18:13:28.961Z,101551.31
2018-03-20T18:15:54.814Z,101555.89
2018-03-20T18:18:20.713Z,101566.16
2018-03-20T18:20:46.534Z,101571.31
2018-03-20T18:23:12.346Z,101581.80
2018-03-20T18:25:38.238Z,101585.03
2018-03-20T18:28:04.166Z,101579.53
2018-03-20T18:30:29.947Z,101590.27
2018-03-20T18:32:55.798Z,101592.52
2018-03-20T18:35:22.498Z,101596.37
2018-03-20T18:37:49.243Z,101603.48
2018-03-20T18:40:16.072Z,101606.50
2018-03-20T18:42:41.920Z,101611.05
2018-03-20T18:45:07.776Z,101612.34
2018-03-20T18:47:33.600Z,101620.08
2018-03-20T18:50:00.420Z,101623.36
2018-03-20T18:52:26.250Z,101625.88
2018-03-20T18:54:52.108Z,101632.86
2018-03-20T18:57:17.944Z,101631.84
2018-03-20T18:59:43.771Z,101632.36
2018-03-20T19:02:09.604Z,101638.36
2018-03-20T19:04:35.507Z,101639.64
2018-03-20T19:07:01.331Z,101644.61
2018-03-20T19:09:27.203Z,101647.65
2018-03-20T19:11:53.877Z,101650.89
2018-03-20T19:14:19.706Z,101659.91
2018-03-20T19:16:45.538Z,101663.63
2018-03-20T19:19:11.400Z,101670.91
2018-03-20T19:21:37.222Z,101671.55
2018-03-20T19:24:03.078Z,101674.78
2018-03-20T19:26:29.901Z,101692.26
2018-03-20T19:28:56.528Z,101692.59
2018-03-20T19:31:23.239Z,101703.28
2018-03-20T19:33:49.070Z,101709.26
2018-03-20T19:36:14.899Z,101714.50
2018-03-20T19:38:40.754Z,101714.46
2018-03-20T19:41:06.582Z,101717.55
2018-03-20T19:43:32.466Z,101727.09
2018-03-20T19:45:59.207Z,101730.61
2018-03-20T19:48:25.902Z,101735.63
2018-03-20T19:50:51.750Z,101743.23
2018-03-20T19:53:17.613Z,101743.84
2018-03-20T19:55:43.478Z,101749.16
2018-03-20T19:58:10.290Z,101751.73
2018-03-20T20:00:37.936Z,101764.70
2018-03-20T20:03:04.544Z,101764.88
2018-03-20T20:05:31.307Z,101771.73
2018-03-20T20:07:57.163Z,101775.67
2018-03-20T20:10:22.991Z,101772.11
2018-03-20T20:12:48.977Z,101772.06
2018-03-20T20:15:15.742Z,101770.85
2018-03-20T20:17:41.586Z,101775.53
2018-03-20T20:20:08.426Z,101780.93
2018-03-20T20:22:56.527Z,101787.78
2018-03-20T20:25:22.488Z,101795.47
2018-03-20T20:27:48.409Z,101795.53
2018-03-20T20:30:14.366Z,101803.56
2018-03-20T20:32:40.251Z,101810.13
2018-03-20T20:35:06.211Z,101813.73
2018-03-20T20:37:32.124Z,101816.37
2018-03-20T20:39:57.944Z,101817.91
2018-03-20T20:42:23.766Z,101817.95
2018-03-20T20:44:49.582Z,101826.34
2018-03-20T20:47:16.376Z,101820.37
2018-03-20T20:49:42.200Z,101821.31
2018-03-20T20:52:08.078Z,101822.02
2018-03-20T20:54:33.947Z,101828.73
2018-03-20T20:56:59.767Z,101828.57
2018-03-20T20:59:25.590Z,101827.11
2018-03-20T21:01:51.444Z,101836.73
2018-03-20T21:04:17.291Z,101832.25
2018-03-20T21:06:43.160Z,101835.09
2018-03-20T21:09:09.079Z,101841.53
2018-03-20T21:11:35.009Z,101840.59
2018-03-20T21:14:00.911Z,101840.27
2018-03-20T21:16:26.839Z,101849.71
2018-03-20T21:18:52.770Z,101852.25
2018-03-20T21:21:19.036Z,101851.03
2018-03-20T21:23:44.896Z,101854.04
2018-03-20T21:26:10.712Z,101852.96
2018-03-20T21:28:36.559Z,101859.97
2018-03-20T21:31:02.482Z,101859.53
2018-03-20T21:33:28.295Z,101863.99
2018-03-20T21:35:54.116Z,101861.16
2018-03-20T21:38:19.972Z,101864.00
2018-03-20T21:40:45.791Z,101868.83
2018-03-20T21:43:12.558Z,101866.27
2018-03-20T21:45:39.306Z,101869.63
2018-03-20T21:48:05.120Z,101867.63
2018-03-20T21:50:30.941Z,101882.52
2018-03-20T21:52:56.784Z,101878.56
2018-03-20T21:55:22.602Z,101873.61
2018-03-20T21:57:51.348Z,101874.41
2018-03-20T22:00:20.573Z,101878.45
2018-03-20T22:02:49.844Z,101883.66
2018-03-20T22:05:23.729Z,101881.00
2018-03-20T22:07:56.424Z,101887.79
2018-03-20T22:10:24.899Z,101890.33
2018-03-20T22:12:51.775Z,101892.95
2018-03-20T22:15:31.123Z,101898.50
2018-03-20T22:18:03.418Z,101897.32
2018-03-20T22:20:40.580Z,101903.64
2018-03-20T22:23:10.134Z,101904.81
2018-03-20T22:25:38.845Z,101910.54
2018-03-20T22:28:07.297Z,101915.29
2018-03-20T22:30:34.494Z,101916.86
2018-03-20T22:33:02.920Z,101926.22
2018-03-20T22:35:32.095Z,101925.55
2018-03-20T22:37:58.993Z,101923.39
2018-03-20T22:40:24.825Z,101930.42
2018-03-20T22:42:50.648Z,101930.94
2018-03-20T22:45:16.509Z,101936.27
2018-03-20T22:47:42.315Z,101935.22
2018-03-20T22:50:08.136Z,101933.19
2018-03-20T22:52:33.990Z,101934.96
2018-03-20T22:54:59.847Z,101935.09
2018-03-20T22:57:25.713Z,101941.95
2018-03-20T22:59:52.431Z,101942.67
2018-03-20T23:02:19.287Z,101943.36
2018-03-20T23:04:46.119Z,101944.41
2018-03-20T23:07:11.950Z,101943.61
2018-03-20T23:09:37.802Z,101946.45
2018-03-20T23:12:03.632Z,101950.44
2018-03-20T23:14:30.499Z,101948.45
2018-03-20T23:16:56.319Z,101945.81
2018-03-20T23:19:22.295Z,101945.09
2018-03-20T23:21:48.131Z,101947.13
2018-03-20T23:24:14.826Z,101952.03
2018-03-20T23:26:41.611Z,101944.29
2018-03-20T23:29:08.397Z,101947.59
2018-03-20T23:31:35.263Z,101948.27
2018-03-20T23:34:02.103Z,101954.88
2018-03-20T23:36:27.958Z,101958.41
2018-03-20T23:38:54.635Z,101959.03
2018-03-20T23:41:20.489Z,101967.89
2018-03-20T23:43:46.298Z,101964.05
2018-03-20T23:46:13.019Z,101968.16
2018-03-20T23:48:39.700Z,101970.78
2018-03-20T23:51:06.554Z,101975.02
2018-03-20T23:53:32.371Z,101977.35
2018-03-20T23:55:58.263Z,101981.29
2018-03-20T23:58:25.038Z,101980.49
